Time;durP1;ratioP1;P1;durP2;ratioP2;P2;SDS_P1;SDS_P2;PMS_P1;PMS_P2;Temp;Humidity;BMP_temperature;BMP_pressure;BME280_temperature;BME280_humidity;BME280_pressure;Samples;Min_cycle;Max_cycle;Signal;HPM_P1;HPM_P2
2022/11/22 00:00:28;;;;;;;11.00;3.93;;;7.20;99.90;;;;;;5039605;28;20672;-55
2022/11/22 00:02:55;;;;;;;4.47;3.53;;;7.40;99.90;;;;;;5039267;28;20258;-54
2022/11/22 00:05:22;;;;;;;8.13;3.73;;;7.30;99.90;;;;;;5021666;28;20322;-55
2022/11/22 00:07:49;;;;;;;7.13;3.80;;;7.30;99.90;;;;;;5039363;28;20263;-54
2022/11/22 00:10:16;;;;;;;5.87;3.70;;;7.30;99.90;;;;;;5022404;28;20232;-54
2022/11/22 00:12:43;;;;;;;5.80;3.30;;;7.30;99.90;;;;;;5040008;28;20290;-57
2022/11/22 00:15:10;;;;;;;6.37;3.57;;;7.30;99.90;;;;;;5037250;28;20703;-55
2022/11/22 00:17:38;;;;;;;4.73;3.47;;;7.30;99.90;;;;;;5038295;28;20194;-54
2022/11/22 00:20:07;;;;;;;7.97;2.93;;;7.30;99.90;;;;;;5037003;28;20251;-55
2022/11/22 00:22:34;;;;;;;8.13;3.53;;;7.30;99.90;;;;;;5038138;28;20741;-55
2022/11/22 00:25:08;;;;;;;7.67;3.40;;;7.30;99.90;;;;;;5039323;28;20208;-55
2022/11/22 00:27:35;;;;;;;6.53;3.97;;;7.40;99.90;;;;;;5033218;28;20414;-55
2022/11/22 00:30:03;;;;;;;5.47;3.10;;;7.40;99.90;;;;;;5030800;28;20203;-54
2022/11/22 00:32:29;;;;;;;8.53;3.70;;;7.40;99.90;;;;;;5038712;28;20244;-54
2022/11/22 00:34:56;;;;;;;7.17;3.23;;;7.40;99.90;;;;;;5039795;28;20208;-55
2022/11/22 00:37:23;;;;;;;7.73;3.50;;;7.40;99.90;;;;;;5037311;28;20247;-56
2022/11/22 00:39:49;;;;;;;9.33;3.30;;;7.40;99.90;;;;;;5038659;28;20255;-66
2022/11/22 00:42:16;;;;;;;8.37;3.47;;;7.40;99.90;;;;;;5038237;28;20230;-57
2022/11/22 00:44:43;;;;;;;4.90;3.60;;;7.40;99.90;;;;;;5038043;28;20296;-54
2022/11/22 00:47:10;;;;;;;6.70;3.27;;;7.30;99.90;;;;;;5037026;28;20567;-55
2022/11/22 00:49:36;;;;;;;4.67;3.60;;;7.40;99.90;;;;;;5035843;28;20651;-55
2022/11/22 00:52:03;;;;;;;11.47;3.40;;;7.40;99.90;;;;;;5036531;28;20583;-54
2022/11/22 00:54:30;;;;;;;8.97;3.30;;;7.40;99.90;;;;;;5038485;28;20221;-55
2022/11/22 00:56:57;;;;;;;7.77;3.10;;;7.40;99.90;;;;;;5039736;28;20657;-61
2022/11/22 00:59:24;;;;;;;7.43;3.00;;;7.40;99.90;;;;;;5022844;28;20213;-55
2022/11/22 01:01:50;;;;;;;9.17;3.10;;;7.40;99.90;;;;;;5041675;28;20209;-55
2022/11/22 01:04:17;;;;;;;6.03;3.03;;;7.30;99.90;;;;;;5040718;28;20197;-55
2022/11/22 01:06:44;;;;;;;8.10;3.33;;;7.50;99.90;;;;;;5040855;28;21130;-55
2022/11/22 01:09:18;;;;;;;7.53;2.90;;;7.40;99.90;;;;;;5041820;28;20278;-55
2022/11/22 01:11:45;;;;;;;6.40;2.93;;;7.30;99.90;;;;;;5041638;28;20270;-54
2022/11/22 01:14:11;;;;;;;9.10;2.93;;;7.30;99.90;;;;;;5041977;28;20215;-55
2022/11/22 01:16:39;;;;;;;9.13;2.80;;;7.30;99.90;;;;;;5040795;28;20260;-54
2022/11/22 01:19:06;;;;;;;4.40;2.47;;;7.20;99.90;;;;;;5041542;28;20228;-55
2022/11/22 01:21:33;;;;;;;7.30;2.60;;;7.20;99.90;;;;;;5040430;28;20207;-55
2022/11/22 01:24:00;;;;;;;4.93;2.67;;;7.10;99.90;;;;;;5042296;28;20656;-55
2022/11/22 01:26:27;;;;;;;5.40;2.50;;;7.10;99.90;;;;;;5042369;28;20203;-55
2022/11/22 01:28:53;;;;;;;8.43;2.90;;;7.10;99.90;;;;;;5038730;28;20223;-55
2022/11/22 01:31:20;;;;;;;8.13;2.83;;;7.00;99.90;;;;;;5038298;28;20197;-55
2022/11/22 01:33:47;;;;;;;6.13;2.40;;;7.00;99.90;;;;;;5041056;28;20809;-55
2022/11/22 01:36:14;;;;;;;6.70;2.53;;;7.00;99.90;;;;;;5017683;28;20341;-55
2022/11/22 01:38:41;;;;;;;5.57;2.47;;;7.00;99.90;;;;;;5041567;28;20659;-55
2022/11/22 01:41:07;;;;;;;6.60;2.57;;;7.00;99.90;;;;;;5041422;28;20197;-55
2022/11/22 01:43:34;;;;;;;10.00;2.40;;;7.00;99.90;;;;;;5039896;28;20191;-55
2022/11/22 01:46:06;;;;;;;6.43;2.37;;;6.90;99.90;;;;;;5040406;28;20204;-54
2022/11/22 01:48:48;;;;;;;4.03;2.00;;;6.90;99.90;;;;;;5035664;28;20203;-55
2022/11/22 01:51:44;;;;;;;7.53;2.33;;;6.80;99.90;;;;;;5036343;28;20868;-55
2022/11/22 01:54:16;;;;;;;3.10;1.67;;;6.80;99.90;;;;;;5033410;28;20586;-55
2022/11/22 01:56:46;;;;;;;8.30;3.10;;;6.80;99.90;;;;;;5033958;28;20209;-55
2022/11/22 01:59:17;;;;;;;7.47;2.37;;;6.70;99.90;;;;;;5030595;28;20221;-54
2022/11/22 02:01:44;;;;;;;7.07;2.80;;;6.70;99.90;;;;;;5030699;28;20199;-55
2022/11/22 02:04:14;;;;;;;6.83;2.23;;;6.70;99.90;;;;;;5032705;28;20215;-54
2022/11/22 02:07:02;;;;;;;10.30;2.40;;;6.70;99.90;;;;;;5033808;28;20636;-54
2022/11/22 02:09:31;;;;;;;5.83;1.93;;;6.70;99.90;;;;;;5053432;28;20546;-55
2022/11/22 02:12:02;;;;;;;9.50;2.43;;;6.60;99.90;;;;;;5054386;28;20238;-55
2022/11/22 02:14:30;;;;;;;4.83;1.63;;;6.70;99.90;;;;;;5050812;28;20202;-54
2022/11/22 02:16:57;;;;;;;7.60;2.30;;;6.60;99.90;;;;;;5053109;28;21184;-56
2022/11/22 02:19:42;;;;;;;6.07;2.23;;;6.60;99.90;;;;;;5054662;28;20207;-54
2022/11/22 02:22:34;;;;;;;14.83;2.73;;;6.60;99.90;;;;;;5053676;28;20671;-55
2022/11/22 02:25:13;;;;;;;8.70;2.47;;;6.60;99.90;;;;;;5056843;28;20230;-55
2022/11/22 02:27:41;;;;;;;6.83;2.13;;;6.60;99.90;;;;;;5051926;28;20656;-54
2022/11/22 02:30:08;;;;;;;5.00;1.80;;;6.50;99.90;;;;;;5052708;28;20211;-53
2022/11/22 02:32:35;;;;;;;6.27;1.97;;;6.60;99.90;;;;;;5051287;28;20212;-54
2022/11/22 02:35:15;;;;;;;5.67;2.07;;;6.60;99.90;;;;;;5059953;28;20208;-53
2022/11/22 02:37:42;;;;;;;5.67;1.83;;;6.50;99.90;;;;;;5054226;28;20199;-55
2022/11/22 02:40:13;;;;;;;6.90;2.20;;;6.50;99.90;;;;;;5054538;28;20223;-54
2022/11/22 02:42:47;;;;;;;12.10;2.43;;;6.50;99.90;;;;;;5051544;28;20291;-54
2022/11/22 02:45:14;;;;;;;9.53;2.00;;;6.50;99.90;;;;;;5051229;28;20287;-56
2022/11/22 02:47:40;;;;;;;12.97;2.20;;;6.50;99.90;;;;;;5051311;28;20193;-55
2022/11/22 02:50:08;;;;;;;5.77;1.80;;;6.40;99.90;;;;;;5051523;28;20795;-55
2022/11/22 02:52:35;;;;;;;8.80;2.30;;;6.50;99.90;;;;;;5050578;28;20199;-53
2022/11/22 02:55:01;;;;;;;8.43;1.70;;;6.40;99.90;;;;;;5052771;28;20314;-54
2022/11/22 02:57:28;;;;;;;10.80;2.20;;;6.40;99.90;;;;;;5053999;28;20663;-56
2022/11/22 02:59:55;;;;;;;7.73;1.87;;;6.40;99.90;;;;;;5066803;28;20250;-53
2022/11/22 03:02:22;;;;;;;9.13;1.90;;;6.40;99.90;;;;;;5064135;28;20662;-55
2022/11/22 03:04:48;;;;;;;12.10;3.03;;;6.30;99.90;;;;;;5050430;28;20209;-55
2022/11/22 03:07:16;;;;;;;5.57;2.13;;;6.30;99.90;;;;;;5044961;28;20267;-55
2022/11/22 03:09:43;;;;;;;9.33;1.70;;;6.30;99.90;;;;;;5012649;28;20208;-56
2022/11/22 03:12:09;;;;;;;7.40;1.90;;;6.30;99.90;;;;;;5034836;28;20662;-57
2022/11/22 03:14:36;;;;;;;10.93;2.37;;;6.20;99.90;;;;;;5031406;28;20682;-56
2022/11/22 03:17:03;;;;;;;6.90;2.03;;;6.20;99.90;;;;;;5028639;28;20296;-56
2022/11/22 03:19:30;;;;;;;7.97;1.60;;;6.20;99.90;;;;;;5030040;28;20236;-56
2022/11/22 03:21:57;;;;;;;9.13;1.77;;;6.20;99.90;;;;;;5028682;28;20573;-57
2022/11/22 03:24:24;;;;;;;5.53;1.90;;;6.20;99.90;;;;;;5033271;28;20280;-58
2022/11/22 03:26:51;;;;;;;10.37;2.20;;;6.20;99.90;;;;;;5032638;28;20636;-56
2022/11/22 03:29:18;;;;;;;10.67;2.30;;;6.20;99.90;;;;;;5009918;28;20202;-55
2022/11/22 03:31:45;;;;;;;9.40;2.00;;;6.10;99.90;;;;;;5031164;28;20208;-53
2022/11/22 03:34:13;;;;;;;6.53;2.10;;;6.10;99.90;;;;;;5030277;28;20514;-56
2022/11/22 03:36:40;;;;;;;8.23;1.90;;;6.10;99.90;;;;;;5032665;28;20207;-55
2022/11/22 03:39:07;;;;;;;4.13;1.50;;;6.00;99.90;;;;;;5027257;28;21152;-54
2022/11/22 03:41:33;;;;;;;9.97;1.50;;;6.10;99.90;;;;;;5030105;28;20196;-54
2022/11/22 03:44:00;;;;;;;7.50;1.90;;;6.10;99.90;;;;;;5031947;28;20207;-55
2022/11/22 03:46:27;;;;;;;5.13;1.67;;;6.00;99.90;;;;;;5030959;28;20196;-56
2022/11/22 03:48:54;;;;;;;7.37;1.60;;;6.00;99.90;;;;;;5029976;28;20566;-56
2022/11/22 03:51:21;;;;;;;8.57;1.80;;;6.00;99.90;;;;;;5038051;28;20223;-55
2022/11/22 03:53:47;;;;;;;11.50;1.97;;;6.10;99.90;;;;;;5037039;28;20220;-55
2022/11/22 03:56:14;;;;;;;15.07;2.03;;;6.00;99.90;;;;;;5040226;28;20640;-55
2022/11/22 03:58:41;;;;;;;9.13;1.70;;;5.90;99.90;;;;;;5037101;28;20227;-55
2022/11/22 04:01:08;;;;;;;6.20;1.53;;;6.00;99.90;;;;;;5038321;28;20207;-55
2022/11/22 04:03:42;;;;;;;10.63;2.10;;;5.90;99.90;;;;;;5039416;28;20203;-54
2022/11/22 04:06:08;;;;;;;5.23;1.60;;;5.90;99.90;;;;;;5038072;28;20199;-56
2022/11/22 04:08:36;;;;;;;7.87;1.70;;;5.90;99.90;;;;;;5018627;28;20722;-56
2022/11/22 04:11:03;;;;;;;9.30;1.50;;;5.80;99.90;;;;;;5038604;28;20608;-55
2022/11/22 04:16:15;;;;;;;5.77;1.83;;;5.90;99.90;;;;;;5039146;28;20643;-55
2022/11/22 04:18:42;;;;;;;9.30;1.47;;;5.80;99.90;;;;;;5034970;28;20685;-55
2022/11/22 04:26:39;;;;;;;8.50;2.33;;;5.70;99.90;;;;;;5036693;28;20597;-56
2022/11/22 04:29:06;;;;;;;5.17;1.60;;;5.70;99.90;;;;;;5035491;28;20573;-56
2022/11/22 04:34:21;;;;;;;6.60;1.70;;;5.70;99.90;;;;;;5043481;28;20686;-55
2022/11/22 04:36:48;;;;;;;7.63;1.50;;;5.70;99.90;;;;;;5042310;28;20928;-55
2022/11/22 04:39:15;;;;;;;12.73;2.90;;;5.70;99.90;;;;;;5025653;28;22254;-56
2022/11/22 04:41:41;;;;;;;6.57;1.40;;;5.70;99.90;;;;;;5041499;28;20297;-54
2022/11/22 04:46:54;;;;;;;13.17;2.23;;;5.60;99.90;;;;;;5041945;28;20204;-54
2022/11/22 04:49:21;;;;;;;9.20;1.93;;;5.60;99.90;;;;;;5041711;28;20231;-56
2022/11/22 04:54:33;;;;;;;9.20;2.30;;;5.50;99.90;;;;;;5040623;28;21096;-56
2022/11/22 04:57:00;;;;;;;4.47;1.33;;;5.50;99.90;;;;;;5040270;28;20225;-55
2022/11/22 04:59:27;;;;;;;4.83;1.20;;;5.50;99.90;;;;;;5033285;28;22221;-55
2022/11/22 05:01:54;;;;;;;4.93;1.93;;;5.40;99.90;;;;;;5040467;28;20301;-55
2022/11/22 05:04:21;;;;;;;7.80;1.47;;;5.40;99.90;;;;;;5041452;28;20212;-55
2022/11/22 05:06:48;;;;;;;5.73;1.47;;;5.30;99.90;;;;;;5040949;28;20745;-55
2022/11/22 05:09:15;;;;;;;8.57;1.70;;;5.30;99.90;;;;;;5042059;28;20319;-56
2022/11/22 05:11:42;;;;;;;8.47;1.50;;;5.30;99.90;;;;;;5038579;28;20220;-55
2022/11/22 05:14:09;;;;;;;7.13;1.43;;;5.20;99.90;;;;;;5040029;28;20206;-55
2022/11/22 05:16:36;;;;;;;7.93;1.83;;;5.20;99.90;;;;;;5040505;28;20207;-56
2022/11/22 05:19:02;;;;;;;10.20;1.97;;;5.30;99.90;;;;;;5041088;28;20245;-55
2022/11/22 05:21:31;;;;;;;2.50;1.50;;;5.30;99.90;;;;;;5042277;28;20529;-55
2022/11/22 05:23:58;;;;;;;6.43;1.53;;;5.30;99.90;;;;;;5040814;28;20599;-56
2022/11/22 05:26:28;;;;;;;5.77;1.40;;;5.30;99.90;;;;;;5041398;28;20273;-56
2022/11/22 05:28:58;;;;;;;13.23;1.93;;;5.20;99.90;;;;;;5039507;28;20211;-55
2022/11/22 05:31:26;;;;;;;5.77;1.30;;;5.30;99.90;;;;;;5039833;28;20335;-55
2022/11/22 05:33:55;;;;;;;7.30;2.13;;;5.30;99.90;;;;;;5039739;28;20206;-56
2022/11/22 05:36:22;;;;;;;4.70;1.50;;;5.20;99.90;;;;;;5041033;28;20215;-55
2022/11/22 05:38:49;;;;;;;9.73;2.63;;;5.20;99.90;;;;;;5036769;28;20635;-54
2022/11/22 05:41:16;;;;;;;5.90;1.60;;;5.20;99.90;;;;;;5039611;28;20290;-55
2022/11/22 05:43:43;;;;;;;7.47;1.50;;;5.30;99.90;;;;;;5038131;28;20199;-56
2022/11/22 05:46:23;;;;;;;9.43;1.60;;;5.20;99.90;;;;;;5041382;28;20198;-55
2022/11/22 05:48:52;;;;;;;7.50;2.10;;;5.10;99.90;;;;;;5041258;28;20746;-56
2022/11/22 05:51:22;;;;;;;16.07;3.00;;;5.20;99.90;;;;;;5042429;28;20562;-55
2022/11/22 05:53:48;;;;;;;7.30;1.60;;;5.10;99.90;;;;;;5039965;28;20595;-55
2022/11/22 05:56:17;;;;;;;9.37;2.10;;;5.10;99.90;;;;;;5037892;28;20302;-55
2022/11/22 05:58:44;;;;;;;4.33;1.70;;;5.20;99.90;;;;;;5038846;28;20198;-55
2022/11/22 06:01:16;;;;;;;8.23;1.77;;;5.10;99.90;;;;;;5031216;28;20225;-53
2022/11/22 06:03:44;;;;;;;5.77;2.30;;;5.10;99.90;;;;;;5030589;28;20204;-53
2022/11/22 06:06:11;;;;;;;7.77;1.97;;;5.10;99.90;;;;;;5034079;28;20273;-55
2022/11/22 06:08:40;;;;;;;7.73;1.60;;;5.10;99.90;;;;;;5039228;28;20549;-56
2022/11/22 06:11:11;;;;;;;5.27;1.30;;;5.20;99.90;;;;;;5036007;28;20236;-56
2022/11/22 06:13:40;;;;;;;4.10;1.57;;;5.20;99.90;;;;;;5039698;28;20562;-54
2022/11/22 06:16:08;;;;;;;5.30;1.43;;;5.10;99.90;;;;;;5038229;28;21083;-56
2022/11/22 06:18:35;;;;;;;4.27;1.40;;;5.20;99.90;;;;;;5038794;28;20199;-56
2022/11/22 06:21:05;;;;;;;3.23;1.27;;;5.20;99.90;;;;;;5039200;28;20573;-56
2022/11/22 06:23:32;;;;;;;9.97;1.60;;;5.20;99.90;;;;;;5037166;28;20199;-55
2022/11/22 06:26:01;;;;;;;8.87;1.53;;;5.30;99.90;;;;;;5038739;28;20206;-54
2022/11/22 06:28:30;;;;;;;8.80;1.97;;;5.30;99.90;;;;;;5034407;28;20287;-55
2022/11/22 06:31:20;;;;;;;7.83;2.00;;;5.30;99.90;;;;;;5035975;28;20597;-55
2022/11/22 06:33:47;;;;;;;9.03;1.93;;;5.20;99.90;;;;;;5032983;28;20214;-55
2022/11/22 06:36:16;;;;;;;4.10;1.40;;;5.20;99.90;;;;;;5036943;28;20291;-55
2022/11/22 06:38:43;;;;;;;7.53;1.80;;;5.30;99.90;;;;;;5032029;28;20237;-55
2022/11/22 06:41:13;;;;;;;8.33;1.50;;;5.30;99.90;;;;;;5034269;28;20667;-55
2022/11/22 06:43:41;;;;;;;10.23;2.33;;;5.30;99.90;;;;;;5033033;28;20206;-54
2022/11/22 06:46:19;;;;;;;7.17;1.67;;;5.40;99.90;;;;;;5034758;28;20642;-54
2022/11/22 06:48:46;;;;;;;5.07;1.83;;;5.30;99.90;;;;;;5033021;28;20292;-62
2022/11/22 06:51:16;;;;;;;5.70;2.00;;;5.20;99.90;;;;;;5028039;28;20213;-54
2022/11/22 06:53:44;;;;;;;7.60;2.90;;;5.30;99.90;;;;;;5030021;28;20208;-55
2022/11/22 06:56:20;;;;;;;9.83;2.10;;;5.30;99.90;;;;;;5028810;28;20229;-55
2022/11/22 06:58:48;;;;;;;7.60;2.03;;;5.40;99.90;;;;;;5028857;28;20200;-55
2022/11/22 07:01:27;;;;;;;6.73;2.33;;;5.30;99.90;;;;;;5020597;28;20338;-54
2022/11/22 07:03:56;;;;;;;10.53;1.97;;;5.20;99.90;;;;;;4681124;28;10000015;-54
2022/11/22 07:06:30;;;;;;;11.07;2.17;;;5.20;99.90;;;;;;5027865;28;20322;-58
2022/11/22 07:08:58;;;;;;;8.07;2.70;;;5.30;99.90;;;;;;5027462;28;20344;-54
2022/11/22 07:11:27;;;;;;;6.40;2.87;;;5.30;99.90;;;;;;5025773;28;20254;-60
2022/11/22 07:13:56;;;;;;;7.33;2.87;;;5.30;99.90;;;;;;5027553;28;20202;-54
2022/11/22 07:16:29;;;;;;;7.17;2.23;;;5.30;99.90;;;;;;5032301;28;20203;-56
2022/11/22 07:18:58;;;;;;;8.83;2.37;;;5.40;99.90;;;;;;5028481;28;20258;-55
2022/11/22 07:21:25;;;;;;;8.47;2.50;;;5.30;99.90;;;;;;5030375;28;20298;-55
2022/11/22 07:23:55;;;;;;;6.63;2.63;;;5.40;99.90;;;;;;5026769;28;20213;-54
2022/11/22 07:26:24;;;;;;;7.07;2.00;;;5.40;99.90;;;;;;5029845;28;20216;-58
2022/11/22 07:28:51;;;;;;;8.67;2.70;;;5.40;99.90;;;;;;5025289;28;20204;-56
2022/11/22 07:31:18;;;;;;;11.67;2.40;;;5.40;99.90;;;;;;5031303;28;20242;-54
2022/11/22 07:33:45;;;;;;;11.17;2.57;;;5.30;99.90;;;;;;5026581;28;20455;-56
2022/11/22 07:36:18;;;;;;;4.07;2.00;;;5.40;99.90;;;;;;5028880;28;20217;-56
2022/11/22 07:38:46;;;;;;;8.00;2.00;;;5.40;99.90;;;;;;5025543;28;21076;-56
2022/11/22 07:41:14;;;;;;;5.40;2.20;;;5.40;99.90;;;;;;5028256;28;20328;-55
2022/11/22 07:43:41;;;;;;;5.03;2.03;;;5.50;99.90;;;;;;5026772;28;20199;-55
2022/11/22 07:46:19;;;;;;;4.23;1.80;;;5.40;99.90;;;;;;5027316;28;20848;-53
2022/11/22 07:48:48;;;;;;;6.87;2.47;;;5.40;99.90;;;;;;5028925;28;20204;-56
2022/11/22 07:51:15;;;;;;;4.87;2.40;;;5.50;99.90;;;;;;5025385;28;20826;-56
2022/11/22 07:53:42;;;;;;;4.53;1.67;;;5.60;99.90;;;;;;5030220;28;20199;-55
2022/11/22 07:56:08;;;;;;;4.10;1.77;;;5.60;99.90;;;;;;5027584;28;21068;-55
2022/11/22 07:58:36;;;;;;;5.00;2.37;;;5.60;99.90;;;;;;5026291;28;20401;-53
2022/11/22 08:01:15;;;;;;;7.53;1.77;;;5.70;99.90;;;;;;5020325;28;20241;-53
2022/11/22 08:03:43;;;;;;;5.87;1.73;;;5.70;99.90;;;;;;5026519;28;20193;-53
2022/11/22 08:06:11;;;;;;;4.10;1.60;;;5.80;99.90;;;;;;5027406;28;20202;-56
2022/11/22 08:08:38;;;;;;;6.27;1.50;;;5.80;99.90;;;;;;5026069;28;20241;-54
2022/11/22 08:11:06;;;;;;;5.37;1.77;;;5.80;99.90;;;;;;5023985;28;20233;-53
2022/11/22 08:13:33;;;;;;;5.50;2.73;;;5.70;99.90;;;;;;5030808;28;20331;-55
2022/11/22 08:16:10;;;;;;;6.43;2.10;;;5.70;99.90;;;;;;5029977;28;20239;-55
2022/11/22 08:18:38;;;;;;;4.30;1.83;;;5.80;99.90;;;;;;5019808;28;20213;-55
2022/11/22 08:21:10;;;;;;;6.47;2.20;;;5.80;99.90;;;;;;5023985;28;20222;-55
2022/11/22 08:23:37;;;;;;;5.57;1.70;;;5.90;99.90;;;;;;5042878;28;20233;-55
2022/11/22 08:26:06;;;;;;;8.30;1.67;;;5.90;99.90;;;;;;5013475;28;20682;-55
2022/11/22 08:28:33;;;;;;;9.73;1.90;;;5.90;99.90;;;;;;5029219;28;20199;-55
2022/11/22 08:31:03;;;;;;;3.73;1.50;;;5.90;99.90;;;;;;5027413;28;20203;-54
2022/11/22 08:33:30;;;;;;;10.17;1.30;;;5.90;99.90;;;;;;5028399;28;20241;-54
2022/11/22 08:35:57;;;;;;;5.97;1.93;;;5.90;99.90;;;;;;5029916;28;20290;-54
2022/11/22 08:38:23;;;;;;;5.93;1.70;;;5.90;99.90;;;;;;5028628;28;20213;-55
2022/11/22 08:40:50;;;;;;;4.83;1.27;;;5.90;99.90;;;;;;5032200;28;20239;-54
2022/11/22 08:43:17;;;;;;;8.50;1.70;;;5.90;99.90;;;;;;5024550;28;20772;-56
2022/11/22 08:45:44;;;;;;;5.90;1.60;;;6.00;99.90;;;;;;5027300;28;20210;-55
2022/11/22 08:48:11;;;;;;;4.87;1.60;;;6.10;99.90;;;;;;5028270;28;20305;-55
2022/11/22 08:50:37;;;;;;;6.30;1.40;;;6.20;99.90;;;;;;5028196;28;20528;-54
2022/11/22 08:53:04;;;;;;;5.97;1.70;;;6.10;99.90;;;;;;5028003;28;20247;-55
2022/11/22 08:55:31;;;;;;;4.53;1.60;;;6.10;99.90;;;;;;5030718;28;20199;-55
2022/11/22 08:58:01;;;;;;;3.87;1.50;;;6.20;99.90;;;;;;5008338;28;20210;-54
2022/11/22 09:00:27;;;;;;;3.93;1.57;;;6.20;99.90;;;;;;5027847;28;20227;-53
2022/11/22 09:02:59;;;;;;;5.93;1.73;;;6.30;99.90;;;;;;5031461;28;20212;-56
2022/11/22 09:05:26;;;;;;;4.83;1.60;;;6.30;99.90;;;;;;5027863;28;20284;-55
2022/11/22 09:07:53;;;;;;;5.07;1.60;;;6.40;99.90;;;;;;5031087;28;20302;-56
2022/11/22 09:10:39;;;;;;;4.90;1.83;;;6.40;99.90;;;;;;5031685;28;20259;-56
2022/11/22 09:13:06;;;;;;;5.43;1.60;;;6.30;99.90;;;;;;5014096;28;20199;-56
2022/11/22 09:15:33;;;;;;;6.83;1.57;;;6.40;99.90;;;;;;5029039;28;20230;-54
2022/11/22 09:18:03;;;;;;;4.97;1.60;;;6.40;99.90;;;;;;5032561;28;21120;-58
2022/11/22 09:20:29;;;;;;;6.10;2.00;;;6.40;99.90;;;;;;5034794;28;20303;-55
2022/11/22 09:22:56;;;;;;;3.43;1.10;;;6.40;99.90;;;;;;5035428;28;20313;-55
2022/11/22 09:25:23;;;;;;;8.30;1.60;;;6.40;99.90;;;;;;5034860;28;20204;-54
2022/11/22 09:27:50;;;;;;;5.33;1.37;;;6.40;99.90;;;;;;5036080;28;20288;-55
2022/11/22 09:30:17;;;;;;;4.33;1.60;;;6.50;99.90;;;;;;5034625;28;20614;-55
2022/11/22 09:32:44;;;;;;;4.20;2.20;;;6.50;99.90;;;;;;5033332;28;20688;-55
2022/11/22 09:35:10;;;;;;;6.63;1.57;;;6.50;99.90;;;;;;5033554;28;20534;-56
2022/11/22 09:37:37;;;;;;;8.40;1.60;;;6.50;99.90;;;;;;5034928;28;20734;-56
2022/11/22 09:40:04;;;;;;;2.10;1.30;;;6.60;99.90;;;;;;5029053;28;20212;-55
2022/11/22 09:43:10;;;;;;;4.83;1.57;;;6.60;99.90;;;;;;5033262;28;20825;-55
2022/11/22 09:46:19;;;;;;;5.67;1.30;;;6.60;99.90;;;;;;4973114;28;20725;-54
2022/11/22 09:49:15;;;;;;;4.50;1.83;;;6.60;99.90;;;;;;4974148;28;20692;-57
2022/11/22 09:52:21;;;;;;;4.30;2.07;;;6.60;99.90;;;;;;4972729;28;20325;-54
2022/11/22 09:54:58;;;;;;;2.83;1.40;;;6.60;99.90;;;;;;4947640;28;20236;-56
2022/11/22 09:57:32;;;;;;;6.63;1.43;;;6.60;99.90;;;;;;4972529;28;21144;-55
2022/11/22 10:00:15;;;;;;;7.17;1.30;;;6.60;99.90;;;;;;4971157;28;20233;-55
2022/11/22 10:02:53;;;;;;;3.33;1.63;;;6.70;99.90;;;;;;4972275;28;20291;-56
2022/11/22 10:05:58;;;;;;;3.00;1.40;;;6.70;99.90;;;;;;4974619;28;20736;-54
2022/11/22 10:08:35;;;;;;;4.30;1.63;;;6.70;99.90;;;;;;4985229;28;20230;-55
2022/11/22 10:11:10;;;;;;;4.33;1.60;;;6.70;99.90;;;;;;4992136;28;20230;-55
2022/11/22 10:13:49;;;;;;;6.27;2.43;;;6.80;99.90;;;;;;4990805;28;20211;-55
2022/11/22 10:16:31;;;;;;;6.47;2.20;;;6.80;99.90;;;;;;5004001;28;20675;-55
2022/11/22 10:19:14;;;;;;;3.37;1.60;;;6.80;99.90;;;;;;5035340;28;20208;-56
2022/11/22 10:21:42;;;;;;;3.30;1.33;;;6.90;99.90;;;;;;5031067;28;20673;-55
2022/11/22 10:24:14;;;;;;;4.87;1.20;;;6.90;99.90;;;;;;5033836;28;20202;-56
2022/11/22 10:26:41;;;;;;;4.37;1.20;;;6.90;99.90;;;;;;5034040;28;20207;-55
2022/11/22 10:29:27;;;;;;;4.07;1.33;;;6.90;99.90;;;;;;5031785;28;21197;-56
2022/11/22 10:32:26;;;;;;;3.97;1.57;;;6.90;99.90;;;;;;5031244;28;20209;-56
2022/11/22 10:35:12;;;;;;;3.40;1.00;;;7.00;99.90;;;;;;5020005;28;20220;-55
2022/11/22 10:37:55;;;;;;;3.87;1.27;;;7.00;99.90;;;;;;5032195;28;20209;-56
2022/11/22 10:40:28;;;;;;;3.07;1.40;;;7.00;99.90;;;;;;5032071;28;20204;-56
2022/11/22 10:43:14;;;;;;;1.70;0.97;;;7.10;99.90;;;;;;5035338;28;20299;-54
2022/11/22 10:46:08;;;;;;;6.10;1.10;;;7.10;99.90;;;;;;5032906;28;20506;-55
2022/11/22 10:48:57;;;;;;;2.17;1.03;;;7.10;99.90;;;;;;5031731;28;20202;-56
2022/11/22 10:51:55;;;;;;;3.53;1.20;;;7.10;99.90;;;;;;5045633;28;21340;-55
2022/11/22 10:54:34;;;;;;;2.63;1.00;;;7.00;99.90;;;;;;5033486;28;20208;-54
2022/11/22 10:57:28;;;;;;;6.23;1.50;;;7.10;99.90;;;;;;5032004;28;20261;-53
2022/11/22 11:00:13;;;;;;;2.30;0.97;;;7.10;99.90;;;;;;5032308;28;20655;-56
2022/11/22 11:02:49;;;;;;;2.90;1.00;;;7.10;99.90;;;;;;5028334;28;20298;-55
2022/11/22 11:05:22;;;;;;;5.57;1.10;;;7.20;99.90;;;;;;5026893;28;20231;-55
2022/11/22 11:07:51;;;;;;;2.70;1.17;;;7.20;99.90;;;;;;5027421;28;20269;-53
2022/11/22 11:10:35;;;;;;;3.83;1.20;;;7.20;99.90;;;;;;5026894;28;20271;-54
2022/11/22 11:13:25;;;;;;;5.77;1.30;;;7.20;99.90;;;;;;5026491;28;20291;-55
2022/11/22 11:15:58;;;;;;;2.87;1.03;;;7.20;99.90;;;;;;5026620;28;20212;-53
2022/11/22 11:18:42;;;;;;;2.57;1.20;;;7.20;99.90;;;;;;5026713;28;20221;-54
2022/11/22 11:21:13;;;;;;;5.40;0.90;;;7.30;99.90;;;;;;5028825;28;20211;-55
2022/11/22 11:23:41;;;;;;;2.97;1.00;;;7.20;99.90;;;;;;5027756;28;20274;-54
2022/11/22 11:26:18;;;;;;;2.60;1.30;;;7.20;99.90;;;;;;5031309;28;20221;-54
2022/11/22 11:28:45;;;;;;;1.60;0.90;;;7.30;99.90;;;;;;5015494;28;20291;-55
2022/11/22 11:31:12;;;;;;;4.30;1.10;;;7.40;99.90;;;;;;5030340;28;20822;-55
2022/11/22 11:33:40;;;;;;;2.27;1.07;;;7.30;99.90;;;;;;5030073;28;20303;-54
2022/11/22 11:36:23;;;;;;;2.53;0.97;;;7.40;99.90;;;;;;5029094;28;22846;-55
2022/11/22 11:38:55;;;;;;;2.60;1.37;;;7.40;99.90;;;;;;5029794;28;20215;-55
2022/11/22 11:41:33;;;;;;;2.47;1.20;;;7.40;99.90;;;;;;5027670;28;20213;-55
2022/11/22 11:44:27;;;;;;;1.33;0.93;;;7.40;99.90;;;;;;5025651;28;20199;-56
2022/11/22 11:46:55;;;;;;;4.50;0.90;;;7.40;99.90;;;;;;5030222;28;20239;-63
2022/11/22 11:49:27;;;;;;;1.77;0.90;;;7.40;99.90;;;;;;4998117;28;20594;-63
2022/11/22 11:52:00;;;;;;;1.50;1.13;;;7.40;99.90;;;;;;5026985;28;20198;-63
2022/11/22 11:54:55;;;;;;;2.33;0.90;;;7.50;99.90;;;;;;5029819;28;20319;-62
2022/11/22 11:57:33;;;;;;;1.57;0.77;;;7.40;99.90;;;;;;5028943;28;20237;-63
2022/11/22 12:00:06;;;;;;;3.63;1.20;;;7.40;99.90;;;;;;5027432;28;20714;-62
2022/11/22 12:02:32;;;;;;;3.17;0.93;;;7.40;99.90;;;;;;5028637;28;20699;-56
2022/11/22 12:05:13;;;;;;;3.23;0.80;;;7.50;99.90;;;;;;5029362;28;20202;-56
2022/11/22 12:07:43;;;;;;;1.23;0.87;;;7.50;99.90;;;;;;5027995;28;20344;-56
2022/11/22 12:10:32;;;;;;;1.70;0.67;;;7.60;99.90;;;;;;5028419;28;20615;-55
2022/11/22 12:13:29;;;;;;;1.83;0.60;;;7.70;99.90;;;;;;5027882;28;20227;-56
2022/11/22 12:16:29;;;;;;;2.10;0.90;;;7.60;99.90;;;;;;5033104;28;20601;-56
2022/11/22 12:19:16;;;;;;;2.13;0.80;;;7.70;99.90;;;;;;5029974;28;20211;-56
2022/11/22 12:22:13;;;;;;;1.20;0.70;;;7.70;99.90;;;;;;5029258;28;20277;-56
2022/11/22 12:25:07;;;;;;;0.80;0.53;;;7.70;99.90;;;;;;5033172;28;20217;-56
2022/11/22 12:27:54;;;;;;;0.83;0.57;;;7.70;99.90;;;;;;5030706;28;20216;-57
2022/11/22 12:30:22;;;;;;;2.13;0.77;;;7.80;99.90;;;;;;5032815;28;20294;-56
2022/11/22 12:33:04;;;;;;;1.23;0.50;;;7.90;99.90;;;;;;5031812;28;20224;-55
2022/11/22 12:35:42;;;;;;;2.87;0.63;;;7.90;99.90;;;;;;5028600;28;20213;-57
2022/11/22 12:38:22;;;;;;;0.90;0.70;;;7.90;99.90;;;;;;5026635;28;20215;-55
2022/11/22 12:40:54;;;;;;;1.63;0.50;;;7.90;99.90;;;;;;5026360;28;20270;-56
2022/11/22 12:43:38;;;;;;;1.97;0.70;;;7.90;99.90;;;;;;5027093;28;20583;-56
2022/11/22 12:46:28;;;;;;;0.93;0.60;;;7.90;99.90;;;;;;5026209;28;20652;-55
2022/11/22 12:49:09;;;;;;;1.27;0.60;;;7.90;99.90;;;;;;5027055;28;20236;-57
2022/11/22 12:51:46;;;;;;;0.80;0.60;;;8.00;99.90;;;;;;5025340;28;20210;-57
2022/11/22 12:54:22;;;;;;;1.67;0.60;;;7.90;99.90;;;;;;5032072;28;20201;-56
2022/11/22 12:57:00;;;;;;;1.40;0.70;;;8.00;99.90;;;;;;5029151;28;20222;-56
2022/11/22 12:59:55;;;;;;;0.67;0.53;;;8.00;99.90;;;;;;5028257;28;20660;-55
2022/11/22 13:02:35;;;;;;;0.50;0.47;;;8.10;99.90;;;;;;5035681;28;20213;-56
2022/11/22 13:05:14;;;;;;;3.63;0.60;;;8.00;99.90;;;;;;5034677;28;20210;-56
2022/11/22 13:07:43;;;;;;;0.43;0.40;;;8.10;99.90;;;;;;5037289;28;20259;-55
2022/11/22 13:10:33;;;;;;;1.53;0.80;;;8.00;99.90;;;;;;5032615;28;20233;-57
2022/11/22 13:13:01;;;;;;;1.17;0.53;;;8.00;99.90;;;;;;5030817;28;20215;-55
2022/11/22 13:15:31;;;;;;;1.83;0.50;;;8.00;99.90;;;;;;5031007;28;20578;-57
2022/11/22 13:17:59;;;;;;;0.50;0.40;;;8.10;99.90;;;;;;5032915;28;20248;-56
2022/11/22 13:20:34;;;;;;;2.47;0.60;;;8.10;99.90;;;;;;5033842;28;20205;-55
2022/11/22 13:23:30;;;;;;;1.03;0.57;;;8.10;99.90;;;;;;5030845;28;20228;-55
2022/11/22 13:26:15;;;;;;;0.40;0.40;;;8.10;99.90;;;;;;5031612;28;20191;-55
2022/11/22 13:28:43;;;;;;;0.47;0.40;;;8.10;99.90;;;;;;5030015;28;20656;-55
2022/11/22 13:31:10;;;;;;;1.37;0.40;;;8.20;99.90;;;;;;5031797;28;20311;-57
2022/11/22 13:33:52;;;;;;;0.70;0.57;;;8.10;99.90;;;;;;5027865;28;20553;-55
2022/11/22 13:36:28;;;;;;;0.80;0.40;;;8.10;99.90;;;;;;5032266;28;20200;-57